Time,TemperatureF,DewpointF,PressureIn,WindDirection,WindDirectionDegrees,WindSpeedMPH,WindSpeedGustMPH,Humidity,HourlyPrecipIn,Conditions,Clouds,dailyrainin,SoftwareType,DateUTC
2013-03-30 00:12:00,36.6,25.0,30.48,SW,229,0.0,1.0,62,0.00,,,0.00,weatherlink.com 1.10,2013-03-30 04:12:00,
2013-03-30 00:27:00,35.9,24.0,30.48,SW,229,0.0,0.0,62,0.00,,,0.00,weatherlink.com 1.10,2013-03-30 04:27:00,
2013-03-30 00:42:00,36.4,24.0,30.47,SW,229,0.0,0.0,61,0.00,,,0.00,weatherlink.com 1.10,2013-03-30 04:42:00,
2013-03-30 00:57:00,35.9,24.0,30.48,SW,229,0.0,0.0,63,0.00,,,0.00,weatherlink.com 1.10,2013-03-30 04:57:00,
2013-03-30 01:12:00,34.9,25.0,30.48,SW,229,0.0,1.0,66,0.00,,,0.00,weatherlink.com 1.10,2013-03-30 05:12:00,
2013-03-30 01:27:00,33.8,25.0,30.48,SW,229,0.0,4.0,69,0.00,,,0.00,weatherlink.com 1.10,2013-03-30 05:27:00,
2013-03-30 01:42:00,34.3,24.0,30.48,SSW,213,0.0,0.0,67,0.00,,,0.00,weatherlink.com 1.10,2013-03-30 05:42:00,
2013-03-30 01:57:00,33.5,25.0,30.48,SSW,213,0.0,0.0,70,0.00,,,0.00,weatherlink.com 1.10,2013-03-30 05:57:00,
2013-03-30 02:12:00,32.6,25.0,30.48,SSW,213,0.0,0.0,73,0.00,,,0.00,weatherlink.com 1.10,2013-03-30 06:12:00,
2013-03-30 02:27:00,31.9,25.0,30.48,SSW,213,0.0,0.0,75,0.00,,,0.00,weatherlink.com 1.10,2013-03-30 06:27:00,
2013-03-30 02:42:00,31.1,24.0,30.47,SSW,213,0.0,0.0,76,0.00,,,0.00,weatherlink.com 1.10,2013-03-30 06:42:00,
2013-03-30 02:57:00,30.8,24.0,30.47,SSW,213,0.0,1.0,77,0.00,,,0.00,weatherlink.com 1.10,2013-03-30 06:57:00,
2013-03-30 03:12:00,31.2,24.0,30.47,SSW,207,0.0,0.0,76,0.00,,,0.00,weatherlink.com 1.10,2013-03-30 07:12:00,
2013-03-30 03:27:00,31.4,25.0,30.47,SSW,207,0.0,0.0,77,0.00,,,0.00,weatherlink.com 1.10,2013-03-30 07:27:00,
2013-03-30 03:42:00,31.7,25.0,30.47,SSW,207,0.0,0.0,76,0.00,,,0.00,weatherlink.com 1.10,2013-03-30 07:42:00,
2013-03-30 03:57:00,32.2,25.0,30.47,SSW,207,0.0,2.0,76,0.00,,,0.00,weatherlink.com 1.10,2013-03-30 07:57:00,
2013-03-30 04:12:00,31.7,25.0,30.47,SSW,207,0.0,0.0,76,0.00,,,0.00,weatherlink.com 1.10,2013-03-30 08:12:00,
2013-03-30 04:27:00,31.6,25.0,30.47,SSW,207,0.0,0.0,77,0.00,,,0.00,weatherlink.com 1.10,2013-03-30 08:27:00,
2013-03-30 04:42:00,31.0,25.0,30.46,SSW,207,0.0,0.0,78,0.00,,,0.00,weatherlink.com 1.10,2013-03-30 08:42:00,
2013-03-30 04:57:00,31.1,25.0,30.46,SSW,207,0.0,1.0,78,0.00,,,0.00,weatherlink.com 1.10,2013-03-30 08:57:00,
2013-03-30 05:12:00,31.0,25.0,30.46,WSW,244,1.0,4.0,78,0.00,,,0.00,weatherlink.com 1.10,2013-03-30 09:12:00,
2013-03-30 05:27:00,30.8,25.0,30.47,WSW,244,0.0,1.0,78,0.00,,,0.00,weatherlink.com 1.10,2013-03-30 09:27:00,
2013-03-30 05:42:00,30.4,25.0,30.47,WSW,244,0.0,0.0,79,0.00,,,0.00,weatherlink.com 1.10,2013-03-30 09:42:00,
2013-03-30 05:57:00,29.8,25.0,30.47,WSW,244,0.0,0.0,81,0.00,,,0.00,weatherlink.com 1.10,2013-03-30 09:57:00,
2013-03-30 06:12:00,29.7,25.0,30.48,WSW,244,0.0,0.0,81,0.00,,,0.00,weatherlink.com 1.10,2013-03-30 10:12:00,
2013-03-30 06:27:00,29.2,24.0,30.48,WSW,244,0.0,0.0,81,0.00,,,0.00,weatherlink.com 1.10,2013-03-30 10:27:00,
2013-03-30 06:42:00,28.7,24.0,30.48,WSW,244,0.0,0.0,82,0.00,,,0.00,weatherlink.com 1.10,2013-03-30 10:42:00,
2013-03-30 06:57:00,28.7,24.0,30.49,WSW,244,0.0,0.0,83,0.00,,,0.00,weatherlink.com 1.10,2013-03-30 10:57:00,
2013-03-30 07:12:00,28.4,24.0,30.49,WSW,244,0.0,0.0,83,0.00,,,0.00,weatherlink.com 1.10,2013-03-30 11:12:00,
2013-03-30 07:27:00,28.9,25.0,30.50,SSW,208,0.0,1.0,84,0.00,,,0.00,weatherlink.com 1.10,2013-03-30 11:27:00,
2013-03-30 07:42:00,30.2,25.0,30.50,SSW,205,0.0,0.0,81,0.00,,,0.00,weatherlink.com 1.10,2013-03-30 11:42:00,
2013-03-30 07:58:00,30.5,25.0,30.50,NW,304,4.0,5.0,81,0.00,,,0.00,weatherlink.com 1.10,2013-03-30 11:58:00,
2013-03-30 08:13:00,30.8,26.0,30.50,SSW,205,0.0,2.0,82,0.00,,,0.00,weatherlink.com 1.10,2013-03-30 12:13:00,
2013-03-30 08:28:00,31.4,26.0,30.50,SW,229,0.0,6.0,81,0.00,,,0.00,weatherlink.com 1.10,2013-03-30 12:28:00,
2013-03-30 08:43:00,32.7,28.0,30.51,WSW,257,1.0,5.0,82,0.00,,,0.00,weatherlink.com 1.10,2013-03-30 12:43:00,
2013-03-30 08:58:00,34.0,28.0,30.51,WNW,294,2.0,5.0,80,0.00,,,0.00,weatherlink.com 1.10,2013-03-30 12:58:00,
2013-03-30 09:13:00,35.5,30.0,30.51,NW,311,4.0,5.0,79,0.00,,,0.00,weatherlink.com 1.10,2013-03-30 13:13:00,
2013-03-30 09:28:00,37.4,30.0,30.51,NW,317,3.0,7.0,76,0.00,,,0.00,weatherlink.com 1.10,2013-03-30 13:28:00,
2013-03-30 09:43:00,39.4,31.0,30.51,WNW,293,2.0,6.0,72,0.00,,,0.00,weatherlink.com 1.10,2013-03-30 13:43:00,
2013-03-30 09:58:00,40.9,32.0,30.51,WNW,303,1.0,6.0,70,0.00,,,0.00,weatherlink.com 1.10,2013-03-30 13:58:00,
2013-03-30 10:13:00,43.4,33.0,30.50,SW,217,0.0,4.0,67,0.00,,,0.00,weatherlink.com 1.10,2013-03-30 14:13:00,
2013-03-30 10:28:00,46.1,34.0,30.50,SSW,205,1.0,5.0,62,0.00,,,0.00,weatherlink.com 1.10,2013-03-30 14:28:00,
2013-03-30 10:43:00,48.2,33.0,30.50,SSW,198,1.0,4.0,57,0.00,,,0.00,weatherlink.com 1.10,2013-03-30 14:43:00,
2013-03-30 10:58:00,49.5,32.0,30.49,SW,233,0.0,6.0,51,0.00,,,0.00,weatherlink.com 1.10,2013-03-30 14:58:00,
2013-03-30 11:13:00,50.5,29.0,30.48,SW,225,6.0,9.0,44,0.00,,,0.00,weatherlink.com 1.10,2013-03-30 15:13:00,
2013-03-30 11:28:00,50.6,28.0,30.48,NNW,329,10.0,13.0,42,0.00,,,0.00,weatherlink.com 1.10,2013-03-30 15:28:00,
2013-03-30 11:43:00,50.5,29.0,30.47,SW,220,8.0,12.0,43,0.00,,,0.00,weatherlink.com 1.10,2013-03-30 15:43:00,
2013-03-30 11:58:00,50.4,26.0,30.47,West,275,4.0,12.0,39,0.00,,,0.00,weatherlink.com 1.10,2013-03-30 15:58:00,
2013-03-30 12:13:00,52.6,25.0,30.46,North,9,6.0,10.0,35,0.00,,,0.00,weatherlink.com 1.10,2013-03-30 16:13:00,
2013-03-30 12:28:00,53.3,25.0,30.45,SW,228,0.0,10.0,34,0.00,,,0.00,weatherlink.com 1.10,2013-03-30 16:28:00,
2013-03-30 12:43:00,54.1,26.0,30.45,WSW,253,0.0,16.0,34,0.00,,,0.00,weatherlink.com 1.10,2013-03-30 16:43:00,
2013-03-30 12:58:00,53.0,25.0,30.44,NW,306,9.0,14.0,34,0.00,,,0.00,weatherlink.com 1.10,2013-03-30 16:58:00,
2013-03-30 13:13:00,54.3,25.0,30.43,NE,36,1.0,10.0,32,0.00,,,0.00,weatherlink.com 1.10,2013-03-30 17:13:00,
2013-03-30 13:28:00,55.2,26.0,30.42,SW,231,5.0,9.0,32,0.00,,,0.00,weatherlink.com 1.10,2013-03-30 17:28:00,
2013-03-30 13:43:00,55.2,26.0,30.41,NW,311,5.0,11.0,32,0.00,,,0.00,weatherlink.com 1.10,2013-03-30 17:43:00,
2013-03-30 13:58:00,55.0,24.0,30.40,SSW,210,4.0,10.0,30,0.00,,,0.00,weatherlink.com 1.10,2013-03-30 17:58:00,
2013-03-30 14:14:00,55.6,25.0,30.40,SW,229,8.0,13.0,31,0.00,,,0.00,weatherlink.com 1.10,2013-03-30 18:14:00,
2013-03-30 14:29:00,55.3,24.0,30.40,NNE,16,0.0,10.0,30,0.00,,,0.00,weatherlink.com 1.10,2013-03-30 18:29:00,
2013-03-30 14:44:00,56.5,25.0,30.40,West,260,8.0,12.0,30,0.00,,,0.00,weatherlink.com 1.10,2013-03-30 18:44:00,
2013-03-30 14:59:00,57.9,26.0,30.40,NNW,327,7.0,9.0,29,0.00,,,0.00,weatherlink.com 1.10,2013-03-30 18:59:00,
2013-03-30 15:14:00,57.6,25.0,30.38,NE,40,5.0,12.0,28,0.00,,,0.00,weatherlink.com 1.10,2013-03-30 19:14:00,
2013-03-30 15:29:00,58.9,24.0,30.38,West,269,0.0,9.0,26,0.00,,,0.00,weatherlink.com 1.10,2013-03-30 19:29:00,
2013-03-30 15:44:00,58.1,27.0,30.38,WSW,238,6.0,10.0,30,0.00,,,0.00,weatherlink.com 1.10,2013-03-30 19:44:00,
2013-03-30 15:59:00,58.2,24.0,30.37,ESE,121,2.0,7.0,27,0.00,,,0.00,weatherlink.com 1.10,2013-03-30 19:59:00,
2013-03-30 16:14:00,59.1,25.0,30.37,SW,221,1.0,9.0,27,0.00,,,0.00,weatherlink.com 1.10,2013-03-30 20:14:00,
2013-03-30 16:29:00,58.9,27.0,30.36,SSE,159,9.0,11.0,29,0.00,,,0.00,weatherlink.com 1.10,2013-03-30 20:29:00,
2013-03-30 16:44:00,58.6,26.0,30.36,SSW,211,6.0,8.0,29,0.00,,,0.00,weatherlink.com 1.10,2013-03-30 20:44:00,
2013-03-30 16:59:00,57.9,25.0,30.35,WSW,238,2.0,9.0,28,0.00,,,0.00,weatherlink.com 1.10,2013-03-30 20:59:00,
2013-03-30 17:14:00,58.6,25.0,30.35,SSE,166,0.0,6.0,27,0.00,,,0.00,weatherlink.com 1.10,2013-03-30 21:14:00,
2013-03-30 17:29:00,57.8,26.0,30.35,SW,223,2.0,8.0,29,0.00,,,0.00,weatherlink.com 1.10,2013-03-30 21:29:00,
2013-03-30 17:44:00,58.3,26.0,30.35,South,182,0.0,7.0,29,0.00,,,0.00,weatherlink.com 1.10,2013-03-30 21:44:00,
2013-03-30 17:59:00,58.0,25.0,30.35,SE,127,1.0,6.0,28,0.00,,,0.00,weatherlink.com 1.10,2013-03-30 21:59:00,
2013-03-30 18:14:00,58.0,24.0,30.35,ESE,105,0.0,5.0,27,0.00,,,0.00,weatherlink.com 1.10,2013-03-30 22:14:00,
2013-03-30 18:29:00,57.5,25.0,30.35,South,187,0.0,4.0,29,0.00,,,0.00,weatherlink.com 1.10,2013-03-30 22:29:00,
2013-03-30 18:44:00,58.0,25.0,30.35,South,187,0.0,0.0,28,0.00,,,0.00,weatherlink.com 1.10,2013-03-30 22:44:00,
2013-03-30 18:59:00,58.2,25.0,30.34,South,187,0.0,0.0,28,0.00,,,0.00,weatherlink.com 1.10,2013-03-30 22:59:00,
2013-03-30 19:14:00,56.6,26.0,30.34,East,85,7.0,8.0,31,0.00,,,0.00,weatherlink.com 1.10,2013-03-30 23:14:00,
2013-03-30 19:29:00,55.0,26.0,30.35,East,95,2.0,6.0,33,0.00,,,0.00,weatherlink.com 1.10,2013-03-30 23:29:00,
2013-03-30 19:44:00,53.9,26.0,30.35,ESE,106,1.0,5.0,34,0.00,,,0.00,weatherlink.com 1.10,2013-03-30 23:44:00,
2013-03-30 19:59:00,52.5,26.0,30.36,ESE,106,1.0,4.0,36,0.00,,,0.00,weatherlink.com 1.10,2013-03-30 23:59:00,
2013-03-30 20:14:00,51.6,28.0,30.36,ESE,105,0.0,0.0,41,0.00,,,0.00,weatherlink.com 1.10,2013-03-31 00:14:00,
2013-03-30 20:29:00,49.6,29.0,30.36,ESE,105,0.0,0.0,46,0.00,,,0.00,weatherlink.com 1.10,2013-03-31 00:29:00,
2013-03-30 20:44:00,47.9,27.0,30.36,ESE,105,0.0,0.0,44,0.00,,,0.00,weatherlink.com 1.10,2013-03-31 00:44:00,
2013-03-30 20:59:00,47.5,28.0,30.36,ESE,105,0.0,2.0,47,0.00,,,0.00,weatherlink.com 1.10,2013-03-31 00:59:00,
2013-03-30 21:14:00,47.2,26.0,30.37,ESE,105,0.0,0.0,44,0.00,,,0.00,weatherlink.com 1.10,2013-03-31 01:14:00,
2013-03-30 21:29:00,44.7,30.0,30.36,NNW,333,0.0,4.0,57,0.00,,,0.00,weatherlink.com 1.10,2013-03-31 01:29:00,
2013-03-30 21:44:00,42.9,31.0,30.36,NNW,333,0.0,0.0,62,0.00,,,0.00,weatherlink.com 1.10,2013-03-31 01:44:00,
2013-03-30 21:59:00,42.3,30.0,30.36,NNW,333,0.0,0.0,61,0.00,,,0.00,weatherlink.com 1.10,2013-03-31 01:59:00,
2013-03-30 22:14:00,42.0,31.0,30.36,NNE,31,0.0,0.0,65,0.00,,,0.00,weatherlink.com 1.10,2013-03-31 02:14:00,
2013-03-30 22:29:00,40.4,32.0,30.36,NNE,31,0.0,0.0,72,0.00,,,0.00,weatherlink.com 1.10,2013-03-31 02:29:00,
2013-03-30 22:44:00,40.0,31.0,30.36,NE,49,0.0,1.0,71,0.00,,,0.00,weatherlink.com 1.10,2013-03-31 02:44:00,
2013-03-30 22:59:00,39.7,31.0,30.36,NE,53,0.0,0.0,72,0.00,,,0.00,weatherlink.com 1.10,2013-03-31 02:59:00,
2013-03-30 23:14:00,39.2,32.0,30.35,NNW,333,0.0,4.0,75,0.00,,,0.00,weatherlink.com 1.10,2013-03-31 03:14:00,
2013-03-30 23:29:00,38.6,32.0,30.34,NNW,333,0.0,2.0,76,0.00,,,0.00,weatherlink.com 1.10,2013-03-31 03:29:00,
2013-03-30 23:44:00,38.5,31.0,30.34,NNW,348,0.0,0.0,75,0.00,,,0.00,weatherlink.com 1.10,2013-03-31 03:44:00,
2013-03-30 23:59:00,38.2,31.0,30.34,SE,140,0.0,0.0,75,0.00,,,0.00,weatherlink.com 1.10,2013-03-31 03:59:00,